Time;durP1;ratioP1;P1;durP2;ratioP2;P2;SDS_P1;SDS_P2;PMS_P1;PMS_P2;Temp;Humidity;BMP_temperature;BMP_pressure;BME280_temperature;BME280_humidity;BME280_pressure;Samples;Min_cycle;Max_cycle;Signal;HPM_P1;HPM_P2
2022/02/17 00:00:27;;;;;;;2.75;2.00;;;14.10;99.90;;;;;;5112710;27;20235;-64
2022/02/17 00:02:54;;;;;;;29.45;23.13;;;14.10;99.90;;;;;;5112874;27;20620;-65
2022/02/17 00:05:26;;;;;;;6.07;5.03;;;14.20;99.90;;;;;;5112701;27;20235;-65
2022/02/17 00:07:54;;;;;;;4.40;3.37;;;14.30;99.90;;;;;;5112792;27;20526;-65
2022/02/17 00:10:23;;;;;;;6.57;4.63;;;14.30;99.90;;;;;;5112816;27;20465;-65
2022/02/17 00:12:50;;;;;;;3.10;2.80;;;14.30;99.90;;;;;;5112546;27;20468;-65
2022/02/17 00:15:19;;;;;;;3.00;2.37;;;14.40;99.90;;;;;;5113005;27;20838;-65
2022/02/17 00:17:45;;;;;;;5.77;4.83;;;14.40;99.90;;;;;;5112902;27;20478;-65
2022/02/17 00:20:14;;;;;;;6.80;5.20;;;14.30;99.90;;;;;;5112464;27;20472;-64
2022/02/17 00:22:41;;;;;;;3.67;2.10;;;14.40;99.90;;;;;;5112276;27;20577;-64
2022/02/17 00:25:10;;;;;;;3.80;2.50;;;14.40;99.90;;;;;;5112708;27;20471;-64
2022/02/17 00:27:37;;;;;;;2.63;2.23;;;14.40;99.90;;;;;;5112461;27;20526;-64
2022/02/17 00:30:06;;;;;;;1.70;1.50;;;14.40;99.90;;;;;;5112984;27;20802;-66
2022/02/17 00:32:34;;;;;;;0.97;0.97;;;14.40;99.90;;;;;;5112483;27;20298;-64
2022/02/17 00:35:01;;;;;;;1.40;1.17;;;14.30;99.90;;;;;;5112640;27;20465;-66
2022/02/17 00:37:28;;;;;;;7.15;5.43;;;14.30;99.90;;;;;;5112300;27;20540;-64
2022/02/17 00:39:55;;;;;;;3.90;1.63;;;14.30;99.90;;;;;;5112831;27;20207;-64
2022/02/17 00:42:23;;;;;;;1.40;1.30;;;14.40;99.90;;;;;;5098859;27;20469;-64
2022/02/17 00:44:50;;;;;;;5.70;4.57;;;14.30;99.90;;;;;;5108679;28;20219;-64
2022/02/17 00:47:17;;;;;;;4.37;3.30;;;14.40;99.90;;;;;;5112761;28;20230;-64
2022/02/17 00:49:46;;;;;;;1.03;0.93;;;14.40;99.90;;;;;;5112311;28;20452;-64
2022/02/17 00:52:13;;;;;;;1.42;1.30;;;14.40;99.90;;;;;;5112286;27;20477;-64
2022/02/17 00:54:40;;;;;;;1.67;1.58;;;14.40;99.90;;;;;;5112452;27;20227;-64
2022/02/17 00:57:08;;;;;;;15.70;11.38;;;14.40;99.90;;;;;;5107239;27;20226;-64
2022/02/17 00:59:34;;;;;;;3.20;1.70;;;14.30;99.90;;;;;;5092057;28;20223;-64
2022/02/17 01:02:01;;;;;;;12.00;8.63;;;14.30;99.90;;;;;;5091881;28;20227;-64
2022/02/17 01:04:28;;;;;;;5.38;4.18;;;14.20;99.90;;;;;;5092133;28;20494;-64
2022/02/17 01:06:56;;;;;;;3.07;2.77;;;14.30;99.90;;;;;;5092065;28;20219;-64
2022/02/17 01:09:23;;;;;;;13.03;7.30;;;14.30;99.90;;;;;;5093213;28;20477;-65
2022/02/17 01:11:50;;;;;;;7.83;6.70;;;14.20;99.90;;;;;;5111852;27;20472;-64
2022/02/17 01:14:17;;;;;;;9.52;6.32;;;13.80;99.90;;;;;;5108305;27;20546;-64
2022/02/17 01:16:44;;;;;;;7.32;2.90;;;13.50;99.90;;;;;;5110508;27;20332;-64
2022/02/17 01:19:12;;;;;;;4.18;2.35;;;13.20;99.90;;;;;;5103885;28;20215;-64
2022/02/17 01:21:39;;;;;;;5.53;3.67;;;12.90;99.90;;;;;;5104472;28;20274;-64
2022/02/17 01:24:07;;;;;;;6.38;2.97;;;12.70;99.90;;;;;;5112175;28;20219;-64
2022/02/17 01:26:34;;;;;;;5.82;2.90;;;12.60;99.90;;;;;;5098133;28;20239;-64
2022/02/17 01:29:01;;;;;;;7.00;2.58;;;12.40;99.90;;;;;;5099379;28;20230;-64
2022/02/17 01:31:27;;;;;;;5.70;3.08;;;12.20;99.90;;;;;;5111221;27;20242;-64
2022/02/17 01:33:54;;;;;;;5.00;3.40;;;12.10;99.90;;;;;;5112138;28;20253;-64
2022/02/17 01:36:21;;;;;;;3.92;3.03;;;11.90;99.90;;;;;;5097944;28;20684;-65
2022/02/17 01:38:48;;;;;;;4.95;2.83;;;11.80;99.90;;;;;;5111881;27;20219;-65
2022/02/17 01:41:17;;;;;;;3.53;2.33;;;11.70;99.90;;;;;;5105684;28;20247;-64
2022/02/17 01:43:44;;;;;;;4.80;2.70;;;11.60;99.90;;;;;;5104386;27;20565;-64
2022/02/17 01:46:12;;;;;;;4.03;3.03;;;11.60;99.90;;;;;;5112017;28;20226;-64
2022/02/17 01:48:39;;;;;;;4.13;2.67;;;11.50;99.90;;;;;;5111478;27;20223;-64
2022/02/17 01:51:06;;;;;;;8.32;4.18;;;11.40;99.90;;;;;;5107569;28;20692;-64
2022/02/17 01:53:33;;;;;;;15.02;9.32;;;11.40;99.90;;;;;;5109440;28;20234;-64
2022/02/17 01:56:02;;;;;;;4.93;4.38;;;11.40;99.90;;;;;;5107677;28;20231;-64
2022/02/17 01:58:32;;;;;;;5.68;3.00;;;11.40;99.90;;;;;;5109600;28;20236;-64
2022/02/17 02:00:59;;;;;;;17.63;9.45;;;11.40;99.90;;;;;;5106669;27;20238;-64
2022/02/17 02:03:26;;;;;;;7.85;6.13;;;11.40;99.90;;;;;;5106792;28;20273;-64
2022/02/17 02:05:53;;;;;;;10.10;4.88;;;11.40;99.90;;;;;;5114796;27;20326;-64
2022/02/17 02:08:20;;;;;;;5.53;3.35;;;11.40;99.90;;;;;;5101383;28;20230;-64
2022/02/17 02:10:48;;;;;;;4.07;2.22;;;11.40;99.90;;;;;;5114543;27;20673;-64
2022/02/17 02:13:15;;;;;;;8.82;6.00;;;11.40;99.90;;;;;;5112813;28;20236;-64
2022/02/17 02:15:49;;;;;;;10.80;7.10;;;11.40;99.90;;;;;;5111072;27;20238;-64
2022/02/17 02:18:17;;;;;;;8.15;5.30;;;11.40;99.90;;;;;;5115253;27;20230;-64
2022/02/17 02:20:51;;;;;;;4.82;3.65;;;11.40;99.90;;;;;;5103873;27;20229;-64
2022/02/17 02:23:18;;;;;;;11.32;7.47;;;11.40;99.90;;;;;;5114727;28;20241;-64
2022/02/17 02:25:47;;;;;;;9.88;6.30;;;11.40;99.90;;;;;;5107218;27;20223;-64
2022/02/17 02:28:18;;;;;;;9.10;7.78;;;11.50;99.90;;;;;;5108350;27;20250;-64
2022/02/17 02:30:45;;;;;;;7.70;6.60;;;11.50;99.90;;;;;;5102586;28;20245;-64
2022/02/17 02:33:12;;;;;;;9.52;4.80;;;11.40;99.90;;;;;;5100940;28;20226;-64
2022/02/17 02:35:40;;;;;;;11.38;5.50;;;11.50;99.90;;;;;;5114234;27;20557;-64
2022/02/17 02:38:08;;;;;;;6.95;2.85;;;11.50;99.90;;;;;;5114465;28;20227;-64
2022/02/17 02:40:35;;;;;;;10.57;5.03;;;11.50;99.90;;;;;;5114500;28;20605;-64
2022/02/17 02:43:03;;;;;;;8.40;4.45;;;11.50;99.90;;;;;;5109903;27;20230;-64
2022/02/17 02:45:31;;;;;;;10.60;5.95;;;11.50;99.90;;;;;;5097712;28;20224;-64
2022/02/17 02:47:58;;;;;;;9.43;6.80;;;11.40;99.90;;;;;;5110601;27;20234;-64
2022/02/17 02:50:25;;;;;;;7.50;4.93;;;11.50;99.90;;;;;;5114817;27;20231;-64
2022/02/17 02:52:52;;;;;;;15.30;8.27;;;11.50;99.90;;;;;;5104836;28;20227;-64
2022/02/17 02:55:21;;;;;;;6.25;3.50;;;11.50;99.90;;;;;;5114700;28;20234;-64
2022/02/17 02:57:47;;;;;;;8.20;3.88;;;11.50;99.90;;;;;;5100076;28;20223;-64
2022/02/17 03:00:15;;;;;;;10.40;6.05;;;11.50;99.90;;;;;;5114091;28;20683;-64
2022/02/17 03:02:43;;;;;;;12.05;6.40;;;11.50;99.90;;;;;;5100535;27;20230;-64
2022/02/17 03:05:10;;;;;;;6.18;3.10;;;11.50;99.90;;;;;;5102835;28;20650;-64
2022/02/17 03:07:37;;;;;;;12.68;4.43;;;11.50;99.90;;;;;;5107236;28;20682;-64
2022/02/17 03:10:04;;;;;;;6.97;4.40;;;11.60;99.90;;;;;;5098218;28;20227;-65
2022/02/17 03:12:34;;;;;;;7.60;4.30;;;11.50;99.90;;;;;;5112962;27;20222;-64
2022/02/17 03:15:01;;;;;;;23.10;14.02;;;11.60;99.90;;;;;;5107637;27;20561;-64
2022/02/17 03:17:28;;;;;;;11.57;8.40;;;11.60;99.90;;;;;;5114133;27;20685;-64
2022/02/17 03:19:55;;;;;;;17.60;11.65;;;11.60;99.90;;;;;;5109106;27;20227;-64
2022/02/17 03:22:24;;;;;;;6.03;3.90;;;11.70;99.90;;;;;;5108642;27;20219;-65
2022/02/17 03:24:51;;;;;;;8.93;4.13;;;11.70;99.90;;;;;;5106134;28;20273;-64
2022/02/17 03:27:18;;;;;;;13.35;6.90;;;11.70;99.90;;;;;;5107252;28;20217;-64
2022/02/17 03:29:46;;;;;;;9.27;5.68;;;11.70;99.90;;;;;;5100920;28;20673;-64
2022/02/17 03:32:16;;;;;;;5.00;2.63;;;11.80;99.90;;;;;;5099951;28;20223;-65
2022/02/17 03:34:43;;;;;;;8.40;5.20;;;11.70;99.90;;;;;;5104769;27;20216;-64
2022/02/17 03:37:10;;;;;;;14.27;9.35;;;11.70;99.90;;;;;;5108472;27;20223;-65
2022/02/17 03:39:36;;;;;;;6.32;3.35;;;11.70;99.90;;;;;;5113745;27;20226;-65
2022/02/17 03:42:04;;;;;;;11.02;4.45;;;11.80;99.90;;;;;;5098921;28;20236;-65
2022/02/17 03:44:31;;;;;;;8.75;3.67;;;11.80;99.90;;;;;;5104527;27;20246;-65
2022/02/17 03:46:59;;;;;;;9.30;5.22;;;11.80;99.90;;;;;;5108655;27;20249;-65
2022/02/17 03:49:26;;;;;;;13.63;8.20;;;11.80;99.90;;;;;;5104397;28;20224;-65
2022/02/17 03:51:53;;;;;;;15.02;8.52;;;11.80;99.90;;;;;;5106966;28;20245;-65
2022/02/17 03:54:20;;;;;;;13.13;8.38;;;11.80;99.90;;;;;;5113672;28;20230;-65
2022/02/17 03:56:48;;;;;;;6.45;3.05;;;11.80;99.90;;;;;;5096715;28;20574;-65
2022/02/17 03:59:15;;;;;;;7.50;4.35;;;11.80;99.90;;;;;;5103134;28;20215;-65
2022/02/17 04:01:42;;;;;;;12.30;7.22;;;11.80;99.90;;;;;;5108958;28;20250;-64
2022/02/17 04:04:12;;;;;;;11.82;7.72;;;11.80;99.90;;;;;;5099679;28;20219;-65
2022/02/17 04:06:40;;;;;;;12.35;5.93;;;11.80;99.90;;;;;;5096868;28;20688;-65
2022/02/17 04:09:07;;;;;;;9.32;5.97;;;11.80;99.90;;;;;;5099102;28;20219;-65
2022/02/17 04:11:34;;;;;;;15.88;11.07;;;11.80;99.90;;;;;;5111096;28;20242;-64
2022/02/17 04:14:02;;;;;;;6.18;3.72;;;11.80;99.90;;;;;;5099348;28;20227;-64
2022/02/17 04:16:32;;;;;;;4.97;2.50;;;11.80;99.90;;;;;;5110920;27;20229;-64
2022/02/17 04:18:59;;;;;;;16.02;7.80;;;11.80;99.90;;;;;;5112796;28;20223;-64
2022/02/17 04:21:27;;;;;;;9.25;5.80;;;11.80;99.90;;;;;;5098855;28;20238;-64
2022/02/17 04:23:54;;;;;;;8.23;5.18;;;11.80;99.90;;;;;;5112187;28;20231;-64
2022/02/17 04:26:24;;;;;;;11.70;4.15;;;11.90;99.90;;;;;;5099502;28;20459;-64
2022/02/17 04:28:50;;;;;;;9.38;4.00;;;11.90;99.90;;;;;;5112339;28;20601;-64
2022/02/17 04:31:17;;;;;;;9.00;4.97;;;11.90;99.90;;;;;;5100145;28;20227;-64
2022/02/17 04:33:46;;;;;;;9.02;4.68;;;11.90;99.90;;;;;;5099376;28;20223;-64
2022/02/17 04:36:13;;;;;;;8.40;4.20;;;11.90;99.90;;;;;;5108053;27;20215;-64
2022/02/17 04:38:41;;;;;;;8.55;5.78;;;11.90;99.90;;;;;;5112874;27;20283;-64
2022/02/17 04:43:52;;;;;;;18.42;11.32;;;11.70;99.90;;;;;;5105320;28;20293;-64
2022/02/17 04:46:23;;;;;;;14.88;10.85;;;11.50;99.90;;;;;;5102134;28;20222;-64
2022/02/17 04:48:50;;;;;;;6.35;3.88;;;11.40;99.90;;;;;;5105809;28;20681;-64
2022/02/17 04:51:17;;;;;;;8.45;5.78;;;11.30;99.90;;;;;;5104175;28;20223;-64
2022/02/17 04:53:45;;;;;;;9.00;4.53;;;11.10;99.90;;;;;;5111578;28;20239;-64
2022/02/17 04:56:12;;;;;;;7.10;5.47;;;11.00;99.90;;;;;;5100194;28;20237;-64
2022/02/17 04:58:39;;;;;;;14.15;8.50;;;10.90;99.90;;;;;;5098070;28;20222;-64
2022/02/17 05:01:06;;;;;;;5.30;3.80;;;10.90;99.90;;;;;;5111916;28;20708;-64
2022/02/17 05:03:33;;;;;;;6.72;4.60;;;10.80;99.90;;;;;;5098860;28;20223;-64
2022/02/17 05:06:02;;;;;;;8.13;5.15;;;10.70;99.90;;;;;;5099346;28;20220;-64
2022/02/17 05:08:30;;;;;;;15.63;9.65;;;10.70;99.90;;;;;;5105863;28;20231;-64
2022/02/17 05:10:58;;;;;;;5.78;4.07;;;10.70;99.90;;;;;;5106155;28;20256;-64
2022/02/17 05:13:25;;;;;;;2.75;1.52;;;10.70;99.90;;;;;;5099273;28;20242;-64
2022/02/17 05:15:51;;;;;;;11.48;6.47;;;10.60;99.90;;;;;;5098701;28;20235;-64
2022/02/17 05:18:18;;;;;;;8.88;5.60;;;10.60;99.90;;;;;;5112670;28;20227;-64
2022/02/17 05:20:45;;;;;;;11.43;6.57;;;10.60;99.90;;;;;;5103388;27;20227;-64
2022/02/17 05:23:12;;;;;;;5.75;2.78;;;10.60;99.90;;;;;;5112447;28;20226;-66
2022/02/17 05:25:39;;;;;;;14.45;6.53;;;10.60;99.90;;;;;;5101369;28;20215;-64
2022/02/17 05:28:09;;;;;;;8.38;5.15;;;10.60;99.90;;;;;;5108691;27;20285;-64
2022/02/17 05:30:41;;;;;;;6.82;2.80;;;10.70;99.90;;;;;;5109743;28;20234;-64
2022/02/17 05:33:09;;;;;;;16.77;10.98;;;10.70;99.90;;;;;;5104934;28;20284;-64
2022/02/17 05:35:36;;;;;;;14.60;8.48;;;10.70;99.90;;;;;;5102476;28;20219;-64
2022/02/17 05:38:03;;;;;;;13.15;7.30;;;10.60;99.90;;;;;;5115850;27;20231;-64
2022/02/17 05:40:30;;;;;;;16.45;11.10;;;10.70;99.90;;;;;;5114657;28;20230;-64
2022/02/17 05:42:57;;;;;;;7.20;2.85;;;10.70;99.90;;;;;;5104491;28;20580;-65
2022/02/17 05:45:26;;;;;;;19.65;14.35;;;10.70;99.90;;;;;;5108515;27;20223;-65
2022/02/17 05:47:53;;;;;;;16.50;10.63;;;10.70;99.90;;;;;;5104970;28;20231;-64
2022/02/17 05:50:20;;;;;;;15.40;11.70;;;10.70;99.90;;;;;;5102046;28;20673;-65
2022/02/17 05:52:50;;;;;;;9.90;3.05;;;10.70;99.90;;;;;;5114693;28;20235;-65
2022/02/17 05:55:17;;;;;;;8.15;3.95;;;10.70;99.90;;;;;;5110909;28;20589;-65
2022/02/17 05:57:44;;;;;;;15.00;7.00;;;10.70;99.90;;;;;;5100062;28;20227;-64
2022/02/17 06:00:12;;;;;;;17.45;10.18;;;10.70;99.90;;;;;;5113544;27;20227;-64
2022/02/17 06:02:41;;;;;;;12.63;6.15;;;10.70;99.90;;;;;;5104133;28;20231;-64
2022/02/17 06:05:10;;;;;;;19.52;12.82;;;10.70;99.90;;;;;;5108940;28;20220;-65
2022/02/17 06:07:47;;;;;;;10.35;6.45;;;10.70;99.90;;;;;;5107702;28;20219;-64
2022/02/17 06:10:14;;;;;;;12.18;6.20;;;10.80;99.90;;;;;;5102054;28;20227;-65
2022/02/17 06:12:42;;;;;;;24.95;11.63;;;10.80;99.90;;;;;;5115034;28;20223;-65
2022/02/17 06:15:10;;;;;;;11.85;8.27;;;10.70;99.90;;;;;;5096892;27;20219;-65
2022/02/17 06:17:36;;;;;;;9.75;4.65;;;10.80;99.90;;;;;;5115172;27;20235;-65
2022/02/17 06:20:06;;;;;;;11.60;4.38;;;10.80;99.90;;;;;;5112341;28;20223;-65
2022/02/17 06:22:33;;;;;;;21.20;8.00;;;10.80;99.90;;;;;;5110952;27;20230;-65
2022/02/17 06:25:00;;;;;;;19.50;12.18;;;10.80;99.10;;;;;;5111547;28;20231;-65
2022/02/17 06:27:27;;;;;;;16.15;5.78;;;10.90;98.80;;;;;;5105379;28;20687;-65
2022/02/17 06:29:53;;;;;;;8.02;4.90;;;10.90;97.50;;;;;;5101500;28;20230;-64
2022/02/17 06:32:20;;;;;;;13.45;7.25;;;10.90;97.20;;;;;;5104086;28;20220;-63
2022/02/17 06:34:47;;;;;;;27.15;14.98;;;10.90;97.20;;;;;;5108540;27;20228;-64
2022/02/17 06:37:15;;;;;;;14.70;7.85;;;10.90;97.30;;;;;;5093775;28;20224;-63
2022/02/17 06:39:42;;;;;;;36.25;18.75;;;11.00;97.80;;;;;;5093651;28;20231;-64
2022/02/17 06:42:09;;;;;;;22.75;11.05;;;11.00;98.00;;;;;;5093927;28;20223;-64
2022/02/17 06:44:36;;;;;;;10.48;5.20;;;11.00;98.10;;;;;;5094773;28;20311;-64
2022/02/17 06:47:03;;;;;;;18.60;8.52;;;10.90;97.60;;;;;;5094214;28;20227;-63
2022/02/17 06:49:32;;;;;;;11.20;5.70;;;11.00;98.00;;;;;;5095148;28;20219;-63
2022/02/17 06:51:59;;;;;;;15.18;7.85;;;11.00;98.10;;;;;;5094244;28;20219;-64
2022/02/17 06:54:27;;;;;;;10.52;7.30;;;11.00;98.30;;;;;;5094719;28;20326;-63
2022/02/17 06:56:54;;;;;;;14.20;7.70;;;11.00;98.30;;;;;;5094515;28;20234;-63
2022/02/17 06:59:21;;;;;;;11.20;7.32;;;11.10;97.90;;;;;;5094355;28;20565;-63
2022/02/17 07:01:47;;;;;;;12.32;8.48;;;11.10;97.10;;;;;;5094434;28;20270;-63
2022/02/17 07:04:14;;;;;;;23.52;10.23;;;11.10;96.80;;;;;;5094272;28;20543;-64
2022/02/17 07:06:42;;;;;;;20.20;9.82;;;11.10;96.40;;;;;;5094542;28;20224;-63
2022/02/17 07:09:09;;;;;;;23.10;14.23;;;11.10;96.30;;;;;;5093837;28;20220;-63
2022/02/17 07:11:37;;;;;;;14.63;6.15;;;11.00;95.90;;;;;;5094514;28;20228;-63
2022/02/17 07:14:04;;;;;;;25.70;14.13;;;11.10;95.80;;;;;;5092869;28;20238;-64
2022/02/17 07:16:31;;;;;;;14.82;8.25;;;11.10;96.00;;;;;;5092523;28;20223;-64
2022/02/17 07:18:58;;;;;;;8.70;4.53;;;11.20;95.80;;;;;;5094079;28;20230;-64
2022/02/17 07:21:29;;;;;;;14.60;8.35;;;11.20;95.10;;;;;;5092742;28;20239;-64
2022/02/17 07:23:56;;;;;;;14.43;6.47;;;11.20;95.10;;;;;;5093454;28;20224;-64
2022/02/17 07:26:23;;;;;;;9.38;3.83;;;11.20;94.60;;;;;;5093112;28;20299;-64
2022/02/17 07:28:51;;;;;;;32.50;17.83;;;11.10;94.70;;;;;;5093478;28;20232;-65
2022/02/17 07:31:18;;;;;;;18.33;9.80;;;11.20;94.90;;;;;;5092582;28;20243;-65
2022/02/17 07:33:45;;;;;;;11.45;4.78;;;11.10;95.00;;;;;;5093470;28;20220;-65
2022/02/17 07:36:11;;;;;;;11.75;3.80;;;11.10;94.70;;;;;;5093445;28;20224;-65
2022/02/17 07:38:38;;;;;;;12.18;7.13;;;11.20;94.70;;;;;;5093985;28;20239;-65
2022/02/17 07:41:06;;;;;;;9.00;5.10;;;11.20;94.40;;;;;;5093536;28;20223;-65
2022/02/17 07:43:33;;;;;;;8.00;3.40;;;11.30;94.40;;;;;;5093834;28;20223;-65
2022/02/17 07:46:01;;;;;;;21.13;13.35;;;11.30;93.80;;;;;;5093847;28;20219;-65
2022/02/17 07:48:28;;;;;;;21.17;11.02;;;11.30;94.00;;;;;;5092589;28;21009;-65
2022/02/17 07:50:56;;;;;;;8.35;3.63;;;11.30;94.10;;;;;;5093614;28;20304;-65
2022/02/17 07:53:23;;;;;;;11.25;4.57;;;11.30;93.10;;;;;;5109906;27;20234;-65
2022/02/17 07:55:50;;;;;;;17.95;8.30;;;11.30;93.00;;;;;;5113965;27;20227;-65
2022/02/17 07:58:17;;;;;;;11.18;7.18;;;11.40;93.00;;;;;;5101614;27;20224;-65
2022/02/17 08:00:44;;;;;;;9.93;3.42;;;11.40;92.80;;;;;;5093560;28;20294;-65
2022/02/17 08:03:13;;;;;;;15.07;4.93;;;11.40;92.10;;;;;;5093147;28;20266;-65
2022/02/17 08:05:41;;;;;;;19.00;11.98;;;11.40;91.70;;;;;;5093485;28;20284;-65
2022/02/17 08:08:09;;;;;;;7.65;5.20;;;11.30;92.20;;;;;;5093137;28;20243;-66
2022/02/17 08:10:36;;;;;;;6.13;3.88;;;11.40;91.60;;;;;;5093253;28;20224;-65
2022/02/17 08:13:04;;;;;;;8.65;5.22;;;11.40;91.70;;;;;;5093218;28;20219;-66
2022/02/17 08:15:31;;;;;;;13.23;7.22;;;11.50;91.60;;;;;;5092977;28;20223;-65
2022/02/17 08:17:58;;;;;;;10.88;4.00;;;11.50;91.40;;;;;;5092935;28;20224;-65
2022/02/17 08:20:26;;;;;;;11.05;4.35;;;11.50;91.30;;;;;;5092755;28;20235;-65
2022/02/17 08:22:54;;;;;;;13.55;7.68;;;11.50;91.10;;;;;;5093084;28;20570;-65
2022/02/17 08:25:22;;;;;;;14.63;7.47;;;11.60;91.50;;;;;;5092779;28;20627;-65
2022/02/17 08:27:50;;;;;;;10.70;4.55;;;11.60;91.50;;;;;;5093065;28;20262;-65
2022/02/17 08:30:18;;;;;;;13.35;4.95;;;11.60;90.80;;;;;;5092529;28;20234;-65
2022/02/17 08:32:45;;;;;;;12.27;5.40;;;11.60;90.70;;;;;;5092806;28;20298;-65
2022/02/17 08:35:13;;;;;;;8.32;5.22;;;11.70;91.30;;;;;;5092358;28;20326;-65
2022/02/17 08:37:42;;;;;;;6.28;3.08;;;11.70;91.40;;;;;;5092748;28;20227;-64
2022/02/17 08:40:11;;;;;;;6.75;4.18;;;11.70;91.10;;;;;;5092289;28;20550;-65
2022/02/17 08:42:38;;;;;;;15.68;8.40;;;11.70;91.20;;;;;;5092759;28;20223;-65
2022/02/17 08:45:06;;;;;;;8.68;4.38;;;11.70;91.40;;;;;;5092827;28;20220;-65
2022/02/17 08:47:33;;;;;;;6.45;2.45;;;11.70;90.90;;;;;;5092401;28;20219;-65
2022/02/17 08:49:59;;;;;;;5.22;2.17;;;11.80;91.00;;;;;;5092904;28;20224;-66
2022/02/17 08:52:26;;;;;;;6.70;2.70;;;11.80;91.10;;;;;;5101222;27;20230;-66
2022/02/17 08:54:55;;;;;;;6.20;2.80;;;11.80;91.30;;;;;;5113007;27;20596;-66
2022/02/17 08:57:21;;;;;;;6.05;3.35;;;11.90;91.20;;;;;;5108444;27;20211;-66
2022/02/17 08:59:48;;;;;;;6.13;3.63;;;11.80;91.00;;;;;;5097806;27;20227;-66
2022/02/17 09:02:15;;;;;;;11.43;3.40;;;11.90;91.20;;;;;;5099119;27;20587;-66
2022/02/17 09:04:42;;;;;;;16.45;8.27;;;11.90;90.90;;;;;;5099497;28;20438;-66
2022/02/17 09:07:09;;;;;;;7.60;3.10;;;11.90;90.90;;;;;;5099173;28;20558;-66
2022/02/17 09:09:36;;;;;;;8.52;4.65;;;11.80;90.70;;;;;;5099185;28;20284;-66
2022/02/17 09:12:04;;;;;;;13.45;5.53;;;11.80;90.90;;;;;;5099250;28;20224;-66
2022/02/17 09:14:31;;;;;;;9.40;4.80;;;11.90;90.90;;;;;;5098647;28;20227;-66
2022/02/17 09:16:58;;;;;;;7.95;5.90;;;11.90;91.50;;;;;;5099204;27;20219;-65
2022/02/17 09:19:25;;;;;;;9.20;3.90;;;11.80;91.20;;;;;;5098877;28;20579;-66
2022/02/17 09:21:52;;;;;;;12.85;6.22;;;11.90;91.10;;;;;;5099094;28;20233;-65
2022/02/17 09:24:20;;;;;;;14.18;5.18;;;11.80;91.00;;;;;;5098508;27;20238;-65
2022/02/17 09:26:47;;;;;;;9.68;3.70;;;11.80;91.60;;;;;;5099280;28;20749;-66
2022/02/17 09:29:15;;;;;;;5.40;3.15;;;11.80;91.20;;;;;;5098804;28;20625;-66
2022/02/17 09:31:42;;;;;;;11.40;6.70;;;11.90;91.20;;;;;;5099038;28;20234;-65
2022/02/17 09:34:11;;;;;;;5.70;3.55;;;11.90;91.30;;;;;;5098996;28;20219;-66
2022/02/17 09:36:38;;;;;;;9.27;4.97;;;11.90;91.30;;;;;;5098886;27;20630;-65
2022/02/17 09:39:06;;;;;;;10.65;6.80;;;11.90;91.70;;;;;;5098752;28;20307;-66
2022/02/17 09:41:33;;;;;;;7.15;3.90;;;11.90;91.80;;;;;;5098717;28;20316;-64
2022/02/17 09:44:07;;;;;;;10.45;3.80;;;11.90;91.40;;;;;;5098731;27;20224;-64
2022/02/17 09:46:38;;;;;;;9.68;3.60;;;11.80;91.30;;;;;;5098414;28;20237;-64
2022/02/17 09:49:05;;;;;;;6.75;4.43;;;11.90;91.60;;;;;;5098984;28;20307;-65
2022/02/17 09:51:34;;;;;;;7.55;2.75;;;11.90;92.40;;;;;;5099301;28;20694;-64
2022/02/17 09:54:04;;;;;;;4.75;2.90;;;11.90;92.20;;;;;;5119252;27;20241;-66
2022/02/17 09:56:31;;;;;;;7.88;4.63;;;11.90;92.40;;;;;;5118770;27;20229;-65
2022/02/17 09:58:58;;;;;;;9.95;3.58;;;11.90;92.90;;;;;;5119034;27;20441;-65
2022/02/17 10:01:27;;;;;;;7.43;3.42;;;11.90;93.50;;;;;;5118608;27;20252;-65
2022/02/17 10:04:13;;;;;;;7.85;3.90;;;11.80;94.00;;;;;;5119241;27;20860;-64
2022/02/17 10:06:44;;;;;;;10.93;7.10;;;11.80;94.40;;;;;;5119079;27;20780;-65
2022/02/17 10:09:12;;;;;;;5.75;2.83;;;11.80;94.60;;;;;;5117158;27;20226;-65
2022/02/17 10:11:40;;;;;;;10.20;4.35;;;11.80;94.60;;;;;;5114685;27;20302;-66
2022/02/17 10:14:08;;;;;;;4.72;2.95;;;11.80;94.30;;;;;;5115988;27;20222;-65
2022/02/17 10:16:52;;;;;;;6.88;2.95;;;11.70;94.60;;;;;;5115677;27;20309;-66
2022/02/17 10:19:21;;;;;;;6.57;2.42;;;11.70;94.90;;;;;;5115521;27;20223;-66
2022/02/17 10:21:48;;;;;;;4.43;2.53;;;11.60;94.80;;;;;;5115896;27;20219;-65
2022/02/17 10:24:34;;;;;;;5.68;2.90;;;11.60;95.00;;;;;;5115705;27;20227;-66
2022/02/17 10:27:03;;;;;;;4.90;2.85;;;11.60;94.90;;;;;;5115921;27;20705;-66
2022/02/17 10:29:30;;;;;;;8.68;3.25;;;11.40;94.60;;;;;;5115680;27;20306;-66
2022/02/17 10:32:09;;;;;;;3.42;1.67;;;11.40;94.60;;;;;;5115457;27;20231;-66
2022/02/17 10:34:37;;;;;;;10.82;3.25;;;11.50;95.10;;;;;;5105097;28;20220;-65
2022/02/17 10:37:05;;;;;;;8.23;2.90;;;11.40;94.90;;;;;;5094960;28;20562;-66
2022/02/17 10:39:37;;;;;;;3.00;1.70;;;11.40;94.60;;;;;;5094797;28;20689;-66
2022/02/17 10:42:07;;;;;;;8.98;2.53;;;11.50;94.90;;;;;;5094581;28;20686;-66
2022/02/17 10:44:35;;;;;;;5.38;1.90;;;11.50;95.00;;;;;;5095000;28;20690;-66
2022/02/17 10:47:13;;;;;;;2.95;2.10;;;11.50;95.00;;;;;;5094440;28;20220;-66
2022/02/17 10:49:45;;;;;;;2.88;2.45;;;11.60;95.00;;;;;;5094723;28;20227;-65
2022/02/17 10:52:13;;;;;;;7.88;2.92;;;11.60;94.80;;;;;;5101066;27;20215;-66
2022/02/17 10:54:40;;;;;;;5.00;2.30;;;11.60;95.20;;;;;;5115105;27;20296;-66
2022/02/17 10:57:07;;;;;;;4.50;1.85;;;11.60;95.00;;;;;;5114368;27;20240;-66
2022/02/17 11:02:23;;;;;;;5.65;1.90;;;11.50;95.20;;;;;;5115348;27;20362;-66
2022/02/17 11:04:51;;;;;;;3.00;1.63;;;11.50;95.10;;;;;;5114323;27;20284;-66
2022/02/17 11:07:19;;;;;;;11.80;3.30;;;11.30;94.80;;;;;;5114623;27;20219;-66
2022/02/17 11:09:46;;;;;;;6.90;2.55;;;11.30;95.00;;;;;;5114302;27;20223;-66
2022/02/17 11:12:16;;;;;;;4.60;2.95;;;11.30;95.30;;;;;;5114964;27;20225;-66
2022/02/17 11:14:45;;;;;;;7.15;3.78;;;11.40;95.40;;;;;;5114160;27;20320;-66
2022/02/17 11:17:13;;;;;;;4.35;2.50;;;11.40;95.10;;;;;;5114596;27;20215;-66
2022/02/17 11:19:41;;;;;;;9.98;4.28;;;11.40;95.00;;;;;;5114158;27;20223;-66
2022/02/17 11:22:12;;;;;;;4.53;3.17;;;11.40;95.00;;;;;;5113426;27;20231;-66
2022/02/17 11:24:53;;;;;;;5.93;3.03;;;11.40;95.10;;;;;;5113833;27;20234;-65
2022/02/17 11:27:21;;;;;;;4.70;2.45;;;11.40;95.50;;;;;;5114648;27;20528;-66
2022/02/17 11:29:48;;;;;;;5.70;2.13;;;11.40;95.60;;;;;;5114052;27;20219;-66
2022/02/17 11:32:19;;;;;;;3.08;2.72;;;11.40;95.60;;;;;;5114526;27;20227;-65
2022/02/17 11:34:47;;;;;;;5.30;2.92;;;11.40;95.80;;;;;;5114092;27;20227;-66
2022/02/17 11:37:44;;;;;;;4.10;2.20;;;11.40;95.80;;;;;;5102893;27;20215;-65
2022/02/17 11:40:15;;;;;;;3.67;2.45;;;11.50;96.00;;;;;;5114022;28;20594;-67
2022/02/17 11:42:45;;;;;;;7.22;2.65;;;11.50;96.20;;;;;;5113473;27;20231;-66
2022/02/17 11:45:16;;;;;;;6.30;4.18;;;11.50;96.50;;;;;;5113706;28;20234;-66
2022/02/17 11:48:03;;;;;;;3.67;2.28;;;11.50;96.80;;;;;;5114152;27;20210;-66
2022/02/17 11:50:47;;;;;;;7.07;3.33;;;11.50;96.70;;;;;;5113108;27;20306;-65
2022/02/17 11:53:26;;;;;;;2.65;2.00;;;11.50;96.40;;;;;;5099629;27;20277;-66
2022/02/17 11:55:55;;;;;;;6.95;3.65;;;11.50;96.20;;;;;;5113724;28;20219;-65
2022/02/17 11:58:44;;;;;;;7.22;3.03;;;11.50;96.40;;;;;;5113222;27;20665;-65
2022/02/17 12:01:41;;;;;;;3.65;1.95;;;11.50;96.30;;;;;;5113607;28;20627;-65
2022/02/17 12:04:15;;;;;;;5.57;1.80;;;11.50;96.10;;;;;;5112266;27;20223;-65
2022/02/17 12:06:45;;;;;;;6.15;3.00;;;11.50;96.20;;;;;;5104536;27;20610;-65
2022/02/17 12:09:35;;;;;;;5.82;2.38;;;11.50;96.40;;;;;;5113000;28;20223;-66
2022/02/17 12:12:37;;;;;;;4.30;1.70;;;11.50;96.70;;;;;;5112575;27;20822;-65
2022/02/17 12:15:06;;;;;;;10.50;5.43;;;11.50;96.70;;;;;;5112939;28;20692;-65
2022/02/17 12:17:35;;;;;;;9.45;6.10;;;11.50;96.70;;;;;;5113236;28;20225;-65
2022/02/17 12:20:11;;;;;;;4.90;2.58;;;11.50;96.70;;;;;;5112752;27;20230;-65
2022/02/17 12:22:47;;;;;;;3.45;2.20;;;11.50;96.40;;;;;;5113362;27;20227;-65
2022/02/17 12:25:19;;;;;;;9.23;4.65;;;11.50;96.20;;;;;;5113077;28;20276;-65
2022/02/17 12:27:51;;;;;;;6.72;4.40;;;11.50;96.30;;;;;;5113251;28;20223;-65
2022/02/17 12:30:33;;;;;;;5.78;2.25;;;11.60;96.50;;;;;;5112834;28;20654;-65
2022/02/17 12:33:08;;;;;;;3.72;1.85;;;11.50;95.70;;;;;;5112382;28;20222;-65
2022/02/17 12:35:36;;;;;;;8.30;4.90;;;11.50;96.20;;;;;;5113020;28;20688;-65
2022/02/17 12:38:05;;;;;;;4.85;2.92;;;11.50;96.50;;;;;;5105228;28;20666;-65
2022/02/17 12:40:33;;;;;;;8.82;4.32;;;11.40;97.20;;;;;;5102900;28;20227;-65
2022/02/17 12:43:00;;;;;;;4.65;4.13;;;11.40;97.30;;;;;;5112667;28;20223;-65
2022/02/17 12:45:45;;;;;;;6.55;4.05;;;11.40;97.40;;;;;;5102392;28;20227;-65
2022/02/17 12:48:17;;;;;;;6.05;5.15;;;11.40;97.30;;;;;;5094241;28;20587;-65
2022/02/17 12:50:51;;;;;;;2.90;2.13;;;11.40;97.50;;;;;;5108245;28;20288;-64
2022/02/17 12:53:18;;;;;;;7.65;3.40;;;11.30;97.20;;;;;;5092128;28;20215;-64
2022/02/17 12:55:48;;;;;;;3.90;2.80;;;11.20;97.50;;;;;;5111270;28;20238;-65